CSN3077 ZGGG-RPLL
Flight info
| Callsign | CSN3077 |
|---|---|
| Flight time | 1h 47m |
| Altitude | 35000 |
| Route | VIBOS9 VIBOS R473 SIERA/N0482F350 DCT MULET DCT SKATE V642 NOMAN A461 AVMUP W16 TADEL TADEL3R |
| Aircraft | B77W/H-SDE1E2E3FGHIJ2J3J4J5M1RWXY/LB1D1 |
Departure
| Time | 2026-05-06 12:10 |
|---|---|
| Airport | Guangzhou Baiyun International Airport (ZGGG) |
Arrival
| Time | 2026-05-06 13:57 |
|---|---|
| Airport | Ninoy Aquino International Airport (RPLL) |
| Time | Latitude | Longitude | Altitude | Speed | Heading |
|---|---|---|---|---|---|
| 2026-05-06 11:44 | 23.40168 | 113.30227 | 57 ft | 0 kts | 194° |
| 2026-05-06 11:55 | 23.40180 | 113.30230 | 57 ft | 2 kts | 200° |
| 2026-05-06 11:56 | 23.40194 | 113.30237 | 57 ft | 2 kts | 212° |
| 2026-05-06 11:56 | 23.40206 | 113.30247 | 57 ft | 2 kts | 222° |
| 2026-05-06 11:56 | 23.40216 | 113.30258 | 57 ft | 2 kts | 231° |
| 2026-05-06 11:56 | 23.40225 | 113.30272 | 57 ft | 2 kts | 242° |
| 2026-05-06 11:57 | 23.40231 | 113.30286 | 57 ft | 2 kts | 251° |
| 2026-05-06 11:57 | 23.40234 | 113.30302 | 57 ft | 2 kts | 261° |
| 2026-05-06 11:57 | 23.40236 | 113.30318 | 57 ft | 2 kts | 269° |
| 2026-05-06 11:57 | 23.40236 | 113.30334 | 57 ft | 2 kts | 256° |
| 2026-05-06 11:58 | 23.40242 | 113.30349 | 57 ft | 2 kts | 238° |
| 2026-05-06 11:58 | 23.40251 | 113.30362 | 57 ft | 2 kts | 224° |
| 2026-05-06 11:58 | 23.40262 | 113.30373 | 57 ft | 2 kts | 224° |
| 2026-05-06 11:58 | 23.40272 | 113.30384 | 57 ft | 2 kts | 225° |
| 2026-05-06 11:59 | 23.40278 | 113.30390 | 57 ft | 0 kts | 226° |
| 2026-05-06 12:00 | 23.40274 | 113.30386 | 57 ft | 2 kts | 226° |
| 2026-05-06 12:01 | 23.40253 | 113.30361 | 57 ft | 6 kts | 232° |
| 2026-05-06 12:01 | 23.40231 | 113.30303 | 57 ft | 10 kts | 262° |
| 2026-05-06 12:01 | 23.40248 | 113.30215 | 57 ft | 13 kts | 284° |
| 2026-05-06 12:01 | 23.40274 | 113.30106 | 57 ft | 16 kts | 284° |
| 2026-05-06 12:02 | 23.40305 | 113.29980 | 57 ft | 18 kts | 293° |
| 2026-05-06 12:02 | 23.40413 | 113.29903 | 57 ft | 20 kts | 341° |
| 2026-05-06 12:02 | 23.40522 | 113.29818 | 57 ft | 19 kts | 287° |
| 2026-05-06 12:02 | 23.40551 | 113.29679 | 57 ft | 18 kts | 283° |
| 2026-05-06 12:03 | 23.40577 | 113.29552 | 57 ft | 16 kts | 276° |
| 2026-05-06 12:03 | 23.40582 | 113.29432 | 57 ft | 15 kts | 280° |
| 2026-05-06 12:03 | 23.40581 | 113.29331 | 57 ft | 13 kts | 222° |
| 2026-05-06 12:03 | 23.40475 | 113.29292 | 57 ft | 19 kts | 194° |
| 2026-05-06 12:04 | 23.40325 | 113.29252 | 57 ft | 24 kts | 193° |
| 2026-05-06 12:04 | 23.40143 | 113.29203 | 57 ft | 29 kts | 194° |
| 2026-05-06 12:04 | 23.39932 | 113.29145 | 57 ft | 33 kts | 194° |
| 2026-05-06 12:04 | 23.39701 | 113.29084 | 57 ft | 33 kts | 194° |
| 2026-05-06 12:05 | 23.39484 | 113.29025 | 57 ft | 30 kts | 194° |
| 2026-05-06 12:05 | 23.39286 | 113.28972 | 57 ft | 28 kts | 193° |
| 2026-05-06 12:05 | 23.39099 | 113.28921 | 57 ft | 26 kts | 194° |
| 2026-05-06 12:05 | 23.38925 | 113.28875 | 57 ft | 24 kts | 194° |
| 2026-05-06 12:06 | 23.38767 | 113.28831 | 57 ft | 22 kts | 194° |
| 2026-05-06 12:06 | 23.38619 | 113.28792 | 57 ft | 20 kts | 193° |
| 2026-05-06 12:06 | 23.38485 | 113.28755 | 57 ft | 19 kts | 194° |
| 2026-05-06 12:06 | 23.38360 | 113.28722 | 57 ft | 17 kts | 194° |
| 2026-05-06 12:07 | 23.38247 | 113.28691 | 57 ft | 16 kts | 194° |
| 2026-05-06 12:07 | 23.38142 | 113.28663 | 57 ft | 14 kts | 194° |
| 2026-05-06 12:07 | 23.38044 | 113.28637 | 57 ft | 13 kts | 193° |
| 2026-05-06 12:07 | 23.37953 | 113.28612 | 57 ft | 12 kts | 194° |
| 2026-05-06 12:08 | 23.37872 | 113.28583 | 57 ft | 9 kts | 227° |
| 2026-05-06 12:08 | 23.37873 | 113.28511 | 57 ft | 9 kts | 281° |
| 2026-05-06 12:08 | 23.37889 | 113.28441 | 57 ft | 9 kts | 291° |
| 2026-05-06 12:08 | 23.37933 | 113.28416 | 57 ft | 7 kts | 5° |
| 2026-05-06 12:09 | 23.38002 | 113.28434 | 57 ft | 19 kts | 14° |
| 2026-05-06 12:09 | 23.38344 | 113.28526 | 57 ft | 85 kts | 14° |
| 2026-05-06 12:09 | 23.39141 | 113.28739 | 57 ft | 148 kts | 14° |
| 2026-05-06 12:09 | 23.40275 | 113.29041 | 314 ft | 178 kts | 15° |
| 2026-05-06 12:10 | 23.41525 | 113.29363 | 835 ft | 193 kts | 15° |
| 2026-05-06 12:10 | 23.42867 | 113.29681 | 1390 ft | 199 kts | 9° |
| 2026-05-06 12:10 | 23.44311 | 113.29659 | 1635 ft | 216 kts | 353° |
| 2026-05-06 12:10 | 23.45860 | 113.29282 | 1798 ft | 236 kts | 343° |
| 2026-05-06 12:11 | 23.47486 | 113.28660 | 1944 ft | 255 kts | 339° |
| 2026-05-06 12:11 | 23.49207 | 113.27935 | 2122 ft | 271 kts | 339° |
| 2026-05-06 12:11 | 23.50973 | 113.27191 | 2461 ft | 272 kts | 339° |
| 2026-05-06 12:11 | 23.52795 | 113.26437 | 3006 ft | 281 kts | 342° |
| 2026-05-06 12:12 | 23.54642 | 113.25822 | 4026 ft | 275 kts | 343° |
| 2026-05-06 12:12 | 23.56504 | 113.25245 | 4797 ft | 278 kts | 343° |
| 2026-05-06 12:12 | 23.58363 | 113.24590 | 5546 ft | 280 kts | 331° |
| 2026-05-06 12:12 | 23.59905 | 113.23319 | 6309 ft | 278 kts | 313° |
| 2026-05-06 12:13 | 23.61219 | 113.21777 | 7105 ft | 277 kts | 309° |
| 2026-05-06 12:13 | 23.62503 | 113.20190 | 7854 ft | 279 kts | 309° |
| 2026-05-06 12:13 | 23.63677 | 113.18503 | 8515 ft | 280 kts | 294° |
| 2026-05-06 12:13 | 23.64174 | 113.16491 | 9171 ft | 279 kts | 271° |
| 2026-05-06 12:14 | 23.63852 | 113.14400 | 9818 ft | 282 kts | 247° |
| 2026-05-06 12:14 | 23.62769 | 113.12593 | 10326 ft | 292 kts | 230° |
| 2026-05-06 12:14 | 23.61286 | 113.10950 | 10652 ft | 311 kts | 224° |
| 2026-05-06 12:14 | 23.59498 | 113.09487 | 10963 ft | 330 kts | 213° |
| 2026-05-06 12:15 | 23.57371 | 113.08374 | 11319 ft | 348 kts | 201° |
| 2026-05-06 12:15 | 23.54950 | 113.07727 | 11686 ft | 366 kts | 189° |
| 2026-05-06 12:15 | 23.52327 | 113.07636 | 12084 ft | 383 kts | 180° |
| 2026-05-06 12:15 | 23.49594 | 113.07802 | 12713 ft | 390 kts | 178° |
| 2026-05-06 12:16 | 23.46837 | 113.07994 | 13469 ft | 395 kts | 179° |
| 2026-05-06 12:16 | 23.44087 | 113.08046 | 14242 ft | 398 kts | 182° |
| 2026-05-06 12:16 | 23.41292 | 113.08038 | 15082 ft | 402 kts | 182° |
| 2026-05-06 12:16 | 23.38470 | 113.08035 | 15949 ft | 405 kts | 182° |
| 2026-05-06 12:17 | 23.35603 | 113.08038 | 16789 ft | 409 kts | 182° |
| 2026-05-06 12:17 | 23.32733 | 113.08045 | 17564 ft | 413 kts | 182° |
| 2026-05-06 12:17 | 23.29818 | 113.08055 | 18331 ft | 418 kts | 182° |
| 2026-05-06 12:17 | 23.26881 | 113.08299 | 19056 ft | 425 kts | 173° |
| 2026-05-06 12:18 | 23.23974 | 113.09101 | 19763 ft | 433 kts | 163° |
| 2026-05-06 12:18 | 23.21149 | 113.10325 | 20471 ft | 439 kts | 160° |
| 2026-05-06 12:18 | 23.18328 | 113.11617 | 21150 ft | 443 kts | 159° |
| 2026-05-06 12:18 | 23.15454 | 113.12935 | 21786 ft | 448 kts | 159° |
| 2026-05-06 12:19 | 23.12540 | 113.14267 | 22431 ft | 453 kts | 159° |
| 2026-05-06 12:19 | 23.09599 | 113.15610 | 23033 ft | 459 kts | 159° |
| 2026-05-06 12:19 | 23.06621 | 113.16967 | 23611 ft | 465 kts | 159° |
| 2026-05-06 12:19 | 23.03625 | 113.18331 | 24207 ft | 471 kts | 159° |
| 2026-05-06 12:20 | 23.00544 | 113.19701 | 24802 ft | 475 kts | 162° |
| 2026-05-06 12:20 | 22.97365 | 113.20824 | 25365 ft | 480 kts | 165° |
| 2026-05-06 12:20 | 22.94164 | 113.21899 | 25927 ft | 486 kts | 164° |
| 2026-05-06 12:20 | 22.90884 | 113.23006 | 26524 ft | 491 kts | 164° |
| 2026-05-06 12:21 | 22.87613 | 113.24120 | 27092 ft | 496 kts | 164° |
| 2026-05-06 12:21 | 22.84305 | 113.25251 | 27618 ft | 502 kts | 164° |
| 2026-05-06 12:21 | 22.80934 | 113.26408 | 28138 ft | 508 kts | 163° |
| 2026-05-06 12:21 | 22.77541 | 113.27576 | 28690 ft | 513 kts | 163° |
| 2026-05-06 12:22 | 22.74132 | 113.28751 | 29235 ft | 517 kts | 163° |
| 2026-05-06 12:22 | 22.70699 | 113.29936 | 30029 ft | 515 kts | 164° |
| 2026-05-06 12:22 | 22.67296 | 113.31111 | 30975 ft | 509 kts | 164° |
| 2026-05-06 12:22 | 22.63924 | 113.32276 | 31848 ft | 505 kts | 164° |
| 2026-05-06 12:23 | 22.60580 | 113.33431 | 32556 ft | 503 kts | 165° |
| 2026-05-06 12:23 | 22.57234 | 113.34586 | 33205 ft | 502 kts | 165° |
| 2026-05-06 12:23 | 22.53903 | 113.35736 | 33890 ft | 501 kts | 165° |
| 2026-05-06 12:23 | 22.50566 | 113.36887 | 34592 ft | 499 kts | 165° |
| 2026-05-06 12:24 | 22.47232 | 113.38037 | 34922 ft | 502 kts | 165° |
| 2026-05-06 12:24 | 22.43870 | 113.39196 | 34931 ft | 501 kts | 165° |
| 2026-05-06 12:24 | 22.37261 | 113.41474 | 34936 ft | 497 kts | 165° |
| 2026-05-06 12:25 | 22.30641 | 113.43753 | 34936 ft | 497 kts | 165° |
| 2026-05-06 12:25 | 22.24002 | 113.46037 | 34940 ft | 498 kts | 165° |
| 2026-05-06 12:26 | 22.17413 | 113.48381 | 34938 ft | 499 kts | 163° |
| 2026-05-06 12:26 | 22.10792 | 113.50820 | 34937 ft | 498 kts | 163° |
| 2026-05-06 12:27 | 22.04197 | 113.53242 | 34939 ft | 498 kts | 163° |
| 2026-05-06 12:27 | 21.97668 | 113.55894 | 34941 ft | 501 kts | 154° |
| 2026-05-06 12:28 | 21.91515 | 113.59583 | 34939 ft | 501 kts | 152° |
| 2026-05-06 12:28 | 21.85409 | 113.63318 | 34935 ft | 502 kts | 152° |
| 2026-05-06 12:29 | 21.79353 | 113.67015 | 34927 ft | 501 kts | 152° |
| 2026-05-06 12:29 | 21.73246 | 113.70737 | 34932 ft | 501 kts | 152° |
| 2026-05-06 12:30 | 21.67177 | 113.74648 | 34934 ft | 503 kts | 144° |
| 2026-05-06 12:30 | 21.62244 | 113.79990 | 34939 ft | 509 kts | 126° |
| 2026-05-06 12:31 | 21.60353 | 113.83276 | 35186 ft | 515 kts | 116° |
| 2026-05-06 12:31 | 21.58974 | 113.86841 | 35915 ft | 510 kts | 107° |
| 2026-05-06 12:31 | 21.58128 | 113.90498 | 36689 ft | 503 kts | 98° |
| 2026-05-06 12:31 | 21.57754 | 113.94235 | 36934 ft | 506 kts | 91° |
| 2026-05-06 12:32 | 21.57521 | 114.01852 | 36942 ft | 504 kts | 90° |
| 2026-05-06 12:32 | 21.57291 | 114.09375 | 36944 ft | 504 kts | 90° |
| 2026-05-06 12:33 | 21.57037 | 114.16946 | 36939 ft | 503 kts | 90° |
| 2026-05-06 12:33 | 21.56770 | 114.24506 | 36946 ft | 504 kts | 91° |
| 2026-05-06 12:34 | 21.56495 | 114.32026 | 36944 ft | 504 kts | 91° |
| 2026-05-06 12:34 | 21.56212 | 114.39581 | 36947 ft | 504 kts | 91° |
| 2026-05-06 12:35 | 21.55924 | 114.47128 | 36947 ft | 503 kts | 91° |
| 2026-05-06 12:35 | 21.55634 | 114.54642 | 36948 ft | 504 kts | 90° |
| 2026-05-06 12:36 | 21.55338 | 114.62205 | 36943 ft | 504 kts | 90° |
| 2026-05-06 12:36 | 21.55038 | 114.69773 | 36940 ft | 505 kts | 91° |
| 2026-05-06 12:37 | 21.54735 | 114.77316 | 36935 ft | 504 kts | 91° |
| 2026-05-06 12:37 | 21.54428 | 114.84888 | 36932 ft | 506 kts | 91° |
| 2026-05-06 12:38 | 21.54116 | 114.92489 | 36930 ft | 506 kts | 91° |
| 2026-05-06 12:38 | 21.53802 | 115.00038 | 36928 ft | 505 kts | 91° |
| 2026-05-06 12:39 | 21.53452 | 115.07583 | 36924 ft | 506 kts | 95° |
| 2026-05-06 12:39 | 21.51737 | 115.14924 | 36935 ft | 507 kts | 112° |
| 2026-05-06 12:40 | 21.48103 | 115.21477 | 36944 ft | 506 kts | 127° |
| 2026-05-06 12:40 | 21.43854 | 115.27515 | 36943 ft | 507 kts | 127° |
| 2026-05-06 12:41 | 21.39556 | 115.33572 | 36939 ft | 507 kts | 128° |
| 2026-05-06 12:41 | 21.35267 | 115.39599 | 36940 ft | 506 kts | 128° |
| 2026-05-06 12:42 | 21.30960 | 115.45637 | 36942 ft | 507 kts | 128° |
| 2026-05-06 12:42 | 21.26653 | 115.51666 | 36938 ft | 506 kts | 128° |
| 2026-05-06 12:43 | 21.22345 | 115.57687 | 36939 ft | 506 kts | 128° |
| 2026-05-06 12:43 | 21.18049 | 115.63684 | 36938 ft | 505 kts | 128° |
| 2026-05-06 12:44 | 21.13748 | 115.69680 | 36933 ft | 505 kts | 128° |
| 2026-05-06 12:44 | 21.09412 | 115.75719 | 36940 ft | 505 kts | 128° |
| 2026-05-06 12:45 | 21.05098 | 115.81721 | 36946 ft | 504 kts | 128° |
| 2026-05-06 12:46 | 20.98619 | 115.90722 | 36950 ft | 504 kts | 128° |
| 2026-05-06 12:46 | 20.94332 | 115.96671 | 36951 ft | 506 kts | 128° |
| 2026-05-06 12:47 | 20.90036 | 116.02625 | 36954 ft | 506 kts | 128° |
| 2026-05-06 12:47 | 20.85596 | 116.08515 | 36944 ft | 505 kts | 135° |
| 2026-05-06 12:48 | 20.80059 | 116.13153 | 36951 ft | 502 kts | 148° |
| 2026-05-06 12:48 | 20.74122 | 116.17201 | 36946 ft | 502 kts | 149° |
| 2026-05-06 12:49 | 20.68178 | 116.21233 | 36946 ft | 501 kts | 149° |
| 2026-05-06 12:49 | 20.62245 | 116.25253 | 36943 ft | 501 kts | 149° |
| 2026-05-06 12:50 | 20.56309 | 116.29268 | 36943 ft | 500 kts | 149° |
| 2026-05-06 12:50 | 20.50381 | 116.33274 | 36941 ft | 501 kts | 149° |
| 2026-05-06 12:51 | 20.44494 | 116.37248 | 36939 ft | 501 kts | 148° |
| 2026-05-06 12:51 | 20.38543 | 116.41262 | 36944 ft | 502 kts | 149° |
| 2026-05-06 12:52 | 20.32632 | 116.45245 | 36939 ft | 501 kts | 149° |
| 2026-05-06 12:52 | 20.26714 | 116.49229 | 36939 ft | 501 kts | 149° |
| 2026-05-06 12:53 | 20.20776 | 116.53223 | 36940 ft | 500 kts | 148° |
| 2026-05-06 12:53 | 20.14864 | 116.57195 | 36938 ft | 500 kts | 148° |
| 2026-05-06 12:54 | 20.08895 | 116.61203 | 36935 ft | 500 kts | 148° |
| 2026-05-06 12:54 | 20.02992 | 116.65162 | 36936 ft | 500 kts | 149° |
| 2026-05-06 12:55 | 19.97658 | 116.69888 | 36934 ft | 501 kts | 134° |
| 2026-05-06 12:55 | 19.92878 | 116.75420 | 36936 ft | 502 kts | 133° |
| 2026-05-06 12:56 | 19.88143 | 116.80920 | 36927 ft | 502 kts | 133° |
| 2026-05-06 12:56 | 19.83420 | 116.86398 | 36924 ft | 501 kts | 133° |
| 2026-05-06 12:57 | 19.78653 | 116.91919 | 36925 ft | 501 kts | 133° |
| 2026-05-06 12:57 | 19.73926 | 116.97387 | 36925 ft | 501 kts | 133° |
| 2026-05-06 12:58 | 19.69195 | 117.02855 | 36926 ft | 500 kts | 133° |
| 2026-05-06 12:58 | 19.64461 | 117.08320 | 36923 ft | 500 kts | 133° |
| 2026-05-06 12:59 | 19.59707 | 117.13803 | 36919 ft | 499 kts | 133° |
| 2026-05-06 12:59 | 19.54979 | 117.19250 | 36922 ft | 499 kts | 133° |
| 2026-05-06 13:00 | 19.50236 | 117.24711 | 36924 ft | 501 kts | 133° |
| 2026-05-06 13:00 | 19.45508 | 117.30148 | 36920 ft | 500 kts | 133° |
| 2026-05-06 13:01 | 19.40731 | 117.35637 | 36919 ft | 500 kts | 133° |
| 2026-05-06 13:01 | 19.36001 | 117.41067 | 36919 ft | 499 kts | 133° |
| 2026-05-06 13:02 | 19.31273 | 117.46488 | 36925 ft | 499 kts | 133° |
| 2026-05-06 13:02 | 19.26508 | 117.51949 | 36925 ft | 499 kts | 133° |
| 2026-05-06 13:03 | 19.21773 | 117.57369 | 36925 ft | 499 kts | 133° |
| 2026-05-06 13:03 | 19.17021 | 117.62805 | 36929 ft | 498 kts | 133° |
| 2026-05-06 13:04 | 19.12307 | 117.68192 | 36927 ft | 498 kts | 133° |
| 2026-05-06 13:04 | 19.07580 | 117.73588 | 36931 ft | 499 kts | 133° |
| 2026-05-06 13:05 | 19.02869 | 117.78961 | 36928 ft | 497 kts | 133° |
| 2026-05-06 13:05 | 18.98090 | 117.84408 | 36930 ft | 498 kts | 133° |
| 2026-05-06 13:06 | 18.93352 | 117.89801 | 36929 ft | 498 kts | 133° |
| 2026-05-06 13:06 | 18.88621 | 117.95184 | 36927 ft | 497 kts | 133° |
| 2026-05-06 13:07 | 18.83909 | 118.00538 | 36928 ft | 497 kts | 133° |
| 2026-05-06 13:07 | 18.79165 | 118.05925 | 36928 ft | 497 kts | 133° |
| 2026-05-06 13:08 | 18.74436 | 118.11290 | 36928 ft | 497 kts | 133° |
| 2026-05-06 13:08 | 18.69746 | 118.16605 | 36930 ft | 496 kts | 133° |
| 2026-05-06 13:09 | 18.64999 | 118.21981 | 36929 ft | 496 kts | 133° |
| 2026-05-06 13:09 | 18.60253 | 118.27351 | 36925 ft | 496 kts | 133° |
| 2026-05-06 13:10 | 18.55533 | 118.32687 | 36922 ft | 495 kts | 133° |
| 2026-05-06 13:10 | 18.50833 | 118.37995 | 36918 ft | 495 kts | 133° |
| 2026-05-06 13:11 | 18.46106 | 118.43330 | 36917 ft | 494 kts | 133° |
| 2026-05-06 13:11 | 18.41392 | 118.48646 | 36916 ft | 495 kts | 133° |
| 2026-05-06 13:12 | 18.36639 | 118.54000 | 36915 ft | 495 kts | 133° |
| 2026-05-06 13:12 | 18.31936 | 118.59294 | 36913 ft | 494 kts | 133° |
| 2026-05-06 13:13 | 18.28009 | 118.63711 | 36912 ft | 494 kts | 133° |
| 2026-05-06 13:13 | 18.22505 | 118.69896 | 36908 ft | 494 kts | 133° |
| 2026-05-06 13:14 | 18.17791 | 118.75188 | 36909 ft | 493 kts | 133° |
| 2026-05-06 13:14 | 18.13075 | 118.80479 | 36908 ft | 494 kts | 133° |
| 2026-05-06 13:15 | 18.08332 | 118.85795 | 36909 ft | 494 kts | 133° |
| 2026-05-06 13:15 | 18.03609 | 118.91084 | 36909 ft | 494 kts | 133° |
| 2026-05-06 13:16 | 17.98602 | 118.96046 | 36912 ft | 492 kts | 146° |
| 2026-05-06 13:16 | 17.92676 | 118.99720 | 36911 ft | 491 kts | 152° |
| 2026-05-06 13:17 | 17.86663 | 119.03213 | 36911 ft | 490 kts | 152° |
| 2026-05-06 13:17 | 17.80673 | 119.06688 | 36909 ft | 491 kts | 152° |
| 2026-05-06 13:18 | 17.74687 | 119.10156 | 36908 ft | 490 kts | 152° |
| 2026-05-06 13:18 | 17.68649 | 119.13650 | 36910 ft | 490 kts | 152° |
| 2026-05-06 13:19 | 17.62644 | 119.17123 | 36911 ft | 489 kts | 152° |
| 2026-05-06 13:19 | 17.56691 | 119.20563 | 36909 ft | 489 kts | 152° |
| 2026-05-06 13:20 | 17.50676 | 119.24036 | 36908 ft | 488 kts | 152° |
| 2026-05-06 13:20 | 17.44701 | 119.27483 | 36906 ft | 488 kts | 152° |
| 2026-05-06 13:21 | 17.38744 | 119.30917 | 36906 ft | 488 kts | 152° |
| 2026-05-06 13:21 | 17.32767 | 119.34360 | 36905 ft | 487 kts | 152° |
| 2026-05-06 13:22 | 17.26810 | 119.37788 | 36904 ft | 486 kts | 152° |
| 2026-05-06 13:22 | 17.20849 | 119.41217 | 36903 ft | 486 kts | 152° |
| 2026-05-06 13:23 | 17.15890 | 119.44068 | 36903 ft | 486 kts | 152° |
| 2026-05-06 13:23 | 17.08935 | 119.48063 | 36903 ft | 486 kts | 152° |
| 2026-05-06 13:24 | 17.02980 | 119.51480 | 36901 ft | 486 kts | 152° |
| 2026-05-06 13:24 | 16.97014 | 119.54901 | 36895 ft | 485 kts | 152° |
| 2026-05-06 13:25 | 16.91085 | 119.58299 | 36892 ft | 484 kts | 152° |
| 2026-05-06 13:25 | 16.85130 | 119.61710 | 36892 ft | 485 kts | 152° |
| 2026-05-06 13:26 | 16.79192 | 119.65107 | 36895 ft | 485 kts | 152° |
| 2026-05-06 13:26 | 16.73222 | 119.68521 | 36895 ft | 485 kts | 152° |
| 2026-05-06 13:27 | 16.67270 | 119.71922 | 36898 ft | 485 kts | 152° |
| 2026-05-06 13:27 | 16.61342 | 119.75307 | 36902 ft | 484 kts | 152° |
| 2026-05-06 13:28 | 16.55402 | 119.78696 | 36905 ft | 485 kts | 152° |
| 2026-05-06 13:28 | 16.49428 | 119.82103 | 36903 ft | 484 kts | 152° |
| 2026-05-06 13:29 | 16.43475 | 119.85495 | 36904 ft | 483 kts | 152° |
| 2026-05-06 13:29 | 16.37504 | 119.88895 | 36902 ft | 483 kts | 152° |
| 2026-05-06 13:30 | 16.31555 | 119.92280 | 36903 ft | 484 kts | 152° |
| 2026-05-06 13:30 | 16.25562 | 119.95687 | 36907 ft | 484 kts | 152° |
| 2026-05-06 13:31 | 16.19591 | 119.99081 | 36912 ft | 484 kts | 152° |
| 2026-05-06 13:31 | 16.13631 | 120.02464 | 36914 ft | 482 kts | 152° |
| 2026-05-06 13:31 | 16.10667 | 120.04147 | 36767 ft | 479 kts | 152° |
| 2026-05-06 13:32 | 16.07720 | 120.05818 | 36380 ft | 481 kts | 152° |
| 2026-05-06 13:32 | 16.04734 | 120.07512 | 35895 ft | 484 kts | 151° |
| 2026-05-06 13:32 | 16.01757 | 120.09199 | 35495 ft | 486 kts | 151° |
| 2026-05-06 13:32 | 15.98773 | 120.10890 | 35210 ft | 486 kts | 151° |
| 2026-05-06 13:33 | 15.95799 | 120.12575 | 34930 ft | 486 kts | 151° |
| 2026-05-06 13:33 | 15.92823 | 120.14261 | 34492 ft | 484 kts | 151° |
| 2026-05-06 13:33 | 15.89854 | 120.15942 | 33609 ft | 485 kts | 151° |
| 2026-05-06 13:33 | 15.86873 | 120.17628 | 32727 ft | 486 kts | 151° |
| 2026-05-06 13:34 | 15.83865 | 120.19331 | 31912 ft | 487 kts | 151° |
| 2026-05-06 13:34 | 15.80911 | 120.21001 | 31074 ft | 488 kts | 151° |
| 2026-05-06 13:34 | 15.77903 | 120.22702 | 30399 ft | 485 kts | 152° |
| 2026-05-06 13:34 | 15.74959 | 120.24366 | 29935 ft | 478 kts | 152° |
| 2026-05-06 13:35 | 15.72016 | 120.26028 | 29421 ft | 472 kts | 152° |
| 2026-05-06 13:35 | 15.69144 | 120.27651 | 28889 ft | 467 kts | 152° |
| 2026-05-06 13:35 | 15.66307 | 120.29253 | 28358 ft | 462 kts | 152° |
| 2026-05-06 13:35 | 15.63487 | 120.30844 | 27818 ft | 458 kts | 152° |
| 2026-05-06 13:36 | 15.60688 | 120.32424 | 27279 ft | 462 kts | 152° |
| 2026-05-06 13:36 | 15.57837 | 120.34032 | 26744 ft | 468 kts | 152° |
| 2026-05-06 13:36 | 15.54985 | 120.35640 | 26582 ft | 454 kts | 152° |
| 2026-05-06 13:36 | 15.52264 | 120.37174 | 26481 ft | 439 kts | 152° |
| 2026-05-06 13:37 | 15.49587 | 120.38683 | 26331 ft | 426 kts | 152° |
| 2026-05-06 13:37 | 15.47016 | 120.40132 | 26176 ft | 413 kts | 152° |
| 2026-05-06 13:37 | 15.44529 | 120.41533 | 26013 ft | 402 kts | 152° |
| 2026-05-06 13:37 | 15.42102 | 120.42874 | 25848 ft | 390 kts | 155° |
| 2026-05-06 13:38 | 15.39583 | 120.43861 | 25607 ft | 381 kts | 162° |
| 2026-05-06 13:38 | 15.37030 | 120.44684 | 25091 ft | 381 kts | 163° |
| 2026-05-06 13:38 | 15.34510 | 120.45484 | 24602 ft | 380 kts | 162° |
| 2026-05-06 13:38 | 15.31964 | 120.46292 | 24138 ft | 378 kts | 162° |
| 2026-05-06 13:39 | 15.29435 | 120.47095 | 23688 ft | 375 kts | 162° |
| 2026-05-06 13:39 | 15.26943 | 120.47886 | 23245 ft | 373 kts | 162° |
| 2026-05-06 13:39 | 15.24452 | 120.48677 | 22804 ft | 371 kts | 162° |
| 2026-05-06 13:39 | 15.21978 | 120.49462 | 22359 ft | 369 kts | 162° |
| 2026-05-06 13:40 | 15.19523 | 120.50241 | 21916 ft | 367 kts | 162° |
| 2026-05-06 13:40 | 15.17070 | 120.51019 | 21478 ft | 365 kts | 162° |
| 2026-05-06 13:40 | 15.14644 | 120.51789 | 21043 ft | 363 kts | 162° |
| 2026-05-06 13:40 | 15.12189 | 120.52568 | 20595 ft | 362 kts | 162° |
| 2026-05-06 13:41 | 15.09798 | 120.53326 | 20155 ft | 360 kts | 162° |
| 2026-05-06 13:41 | 15.07385 | 120.54091 | 19714 ft | 359 kts | 161° |
| 2026-05-06 13:41 | 15.04972 | 120.54856 | 19269 ft | 358 kts | 162° |
| 2026-05-06 13:41 | 15.02590 | 120.55611 | 18825 ft | 356 kts | 162° |
| 2026-05-06 13:42 | 15.00226 | 120.56360 | 18401 ft | 355 kts | 161° |
| 2026-05-06 13:42 | 14.97871 | 120.57105 | 17960 ft | 354 kts | 161° |
| 2026-05-06 13:42 | 14.95485 | 120.57861 | 17525 ft | 352 kts | 162° |
| 2026-05-06 13:42 | 14.93129 | 120.58607 | 17086 ft | 351 kts | 162° |
| 2026-05-06 13:43 | 14.90796 | 120.59345 | 16661 ft | 350 kts | 162° |
| 2026-05-06 13:43 | 14.88470 | 120.60081 | 16234 ft | 349 kts | 161° |
| 2026-05-06 13:43 | 14.86915 | 120.60572 | 15942 ft | 349 kts | 161° |
| 2026-05-06 13:43 | 14.83811 | 120.61554 | 15350 ft | 347 kts | 161° |
| 2026-05-06 13:44 | 14.81498 | 120.62285 | 14914 ft | 346 kts | 161° |
| 2026-05-06 13:44 | 14.79201 | 120.63010 | 14488 ft | 345 kts | 161° |
| 2026-05-06 13:44 | 14.76879 | 120.63744 | 14054 ft | 343 kts | 161° |
| 2026-05-06 13:44 | 14.74588 | 120.64468 | 13636 ft | 341 kts | 161° |
| 2026-05-06 13:45 | 14.72332 | 120.65180 | 13222 ft | 339 kts | 161° |
| 2026-05-06 13:45 | 14.67808 | 120.66608 | 12398 ft | 336 kts | 161° |
| 2026-05-06 13:45 | 14.65563 | 120.67317 | 11976 ft | 335 kts | 161° |
| 2026-05-06 13:46 | 14.63312 | 120.68027 | 11549 ft | 334 kts | 161° |
| 2026-05-06 13:46 | 14.61154 | 120.68868 | 11131 ft | 330 kts | 151° |
| 2026-05-06 13:46 | 14.59128 | 120.69999 | 10701 ft | 328 kts | 148° |
| 2026-05-06 13:46 | 14.57154 | 120.71166 | 10261 ft | 327 kts | 148° |
| 2026-05-06 13:47 | 14.55068 | 120.72105 | 9892 ft | 325 kts | 166° |
| 2026-05-06 13:47 | 14.52852 | 120.72176 | 9552 ft | 316 kts | 189° |
| 2026-05-06 13:47 | 14.50845 | 120.71378 | 9168 ft | 309 kts | 213° |
| 2026-05-06 13:47 | 14.49280 | 120.69886 | 8763 ft | 302 kts | 231° |
| 2026-05-06 13:48 | 14.48064 | 120.68169 | 8360 ft | 296 kts | 236° |
| 2026-05-06 13:48 | 14.46951 | 120.66399 | 7994 ft | 288 kts | 231° |
| 2026-05-06 13:48 | 14.45467 | 120.65086 | 7636 ft | 276 kts | 203° |
| 2026-05-06 13:48 | 14.43638 | 120.64465 | 7328 ft | 280 kts | 187° |
| 2026-05-06 13:49 | 14.41705 | 120.64514 | 6937 ft | 274 kts | 163° |
| 2026-05-06 13:49 | 14.39930 | 120.65160 | 6572 ft | 270 kts | 152° |
| 2026-05-06 13:49 | 14.38250 | 120.66032 | 6234 ft | 269 kts | 148° |
| 2026-05-06 13:49 | 14.36607 | 120.66976 | 5953 ft | 270 kts | 147° |
| 2026-05-06 13:50 | 14.35174 | 120.68205 | 5565 ft | 266 kts | 123° |
| 2026-05-06 13:50 | 14.34473 | 120.69930 | 5224 ft | 259 kts | 95° |
| 2026-05-06 13:50 | 14.34633 | 120.71761 | 4913 ft | 255 kts | 72° |
| 2026-05-06 13:50 | 14.35286 | 120.73461 | 4633 ft | 252 kts | 64° |
| 2026-05-06 13:51 | 14.36085 | 120.75083 | 4398 ft | 248 kts | 62° |
| 2026-05-06 13:51 | 14.36888 | 120.76611 | 4327 ft | 238 kts | 61° |
| 2026-05-06 13:51 | 14.37671 | 120.78086 | 4254 ft | 227 kts | 61° |
| 2026-05-06 13:51 | 14.38416 | 120.79489 | 4168 ft | 217 kts | 61° |
| 2026-05-06 13:52 | 14.39128 | 120.80830 | 4038 ft | 209 kts | 61° |
| 2026-05-06 13:52 | 14.39833 | 120.82150 | 3784 ft | 208 kts | 60° |
| 2026-05-06 13:52 | 14.40554 | 120.83437 | 3524 ft | 207 kts | 59° |
| 2026-05-06 13:52 | 14.41273 | 120.84721 | 3265 ft | 206 kts | 59° |
| 2026-05-06 13:53 | 14.41999 | 120.86025 | 3001 ft | 205 kts | 59° |
| 2026-05-06 13:53 | 14.42706 | 120.87296 | 2745 ft | 205 kts | 60° |
| 2026-05-06 13:53 | 14.43426 | 120.88589 | 2485 ft | 204 kts | 60° |
| 2026-05-06 13:53 | 14.44113 | 120.89825 | 2234 ft | 189 kts | 60° |
| 2026-05-06 13:54 | 14.44749 | 120.90973 | 1994 ft | 177 kts | 60° |
| 2026-05-06 13:54 | 14.45338 | 120.92031 | 1770 ft | 162 kts | 60° |
| 2026-05-06 13:54 | 14.45873 | 120.92992 | 1573 ft | 151 kts | 60° |
| 2026-05-06 13:54 | 14.46394 | 120.93925 | 1384 ft | 148 kts | 60° |
| 2026-05-06 13:55 | 14.46907 | 120.94845 | 1191 ft | 148 kts | 61° |
| 2026-05-06 13:55 | 14.47419 | 120.95766 | 995 ft | 146 kts | 61° |
| 2026-05-06 13:55 | 14.47927 | 120.96680 | 781 ft | 145 kts | 61° |
| 2026-05-06 13:55 | 14.48449 | 120.97604 | 590 ft | 148 kts | 63° |
| 2026-05-06 13:56 | 14.48965 | 120.98533 | 386 ft | 147 kts | 63° |
| 2026-05-06 13:56 | 14.49474 | 120.99448 | 196 ft | 149 kts | 63° |
| 2026-05-06 13:56 | 14.49982 | 121.00366 | 41 ft | 142 kts | 62° |
| 2026-05-06 13:56 | 14.50385 | 121.01097 | 43 ft | 91 kts | 60° |
| 2026-05-06 13:57 | 14.50614 | 121.01508 | 53 ft | 46 kts | 61° |
| 2026-05-06 13:57 | 14.50709 | 121.01655 | 56 ft | 11 kts | 50° |
| 2026-05-06 13:57 | 14.50761 | 121.01711 | 56 ft | 10 kts | 45° |
| 2026-05-06 13:57 | 14.50811 | 121.01755 | 57 ft | 8 kts | 35° |